createdAt,value
2018-07-20T00:00:54.184Z,3.50
2018-07-20T00:03:23.315Z,3.70
2018-07-20T00:05:52.141Z,3.50
2018-07-20T00:08:21.138Z,3.97
2018-07-20T00:10:50.267Z,3.30
2018-07-20T00:13:19.443Z,3.80
2018-07-20T00:15:48.831Z,3.77
2018-07-20T00:18:18.198Z,4.13
2018-07-20T00:20:47.247Z,3.60
2018-07-20T00:23:16.230Z,3.40
2018-07-20T00:25:45.287Z,3.40
2018-07-20T00:28:14.509Z,3.53
2018-07-20T00:30:43.755Z,3.30
2018-07-20T00:33:12.674Z,3.30
2018-07-20T00:35:41.731Z,3.20
2018-07-20T00:38:10.771Z,3.10
2018-07-20T00:40:39.833Z,4.33
2018-07-20T00:43:08.900Z,3.50
2018-07-20T00:45:37.912Z,3.77
2018-07-20T00:48:06.649Z,3.63
2018-07-20T00:50:35.703Z,4.07
2018-07-20T00:53:04.721Z,4.20
2018-07-20T00:55:33.779Z,3.60
2018-07-20T00:58:02.901Z,3.70
2018-07-20T01:00:32.019Z,3.27
2018-07-20T01:03:01.969Z,4.17
2018-07-20T01:05:32.076Z,3.73
2018-07-20T01:08:01.989Z,4.40
2018-07-20T01:10:31.994Z,3.60
2018-07-20T01:13:01.862Z,3.63
2018-07-20T01:15:31.243Z,3.23
2018-07-20T01:18:00.619Z,3.10
2018-07-20T01:20:30.459Z,3.37
2018-07-20T01:23:00.439Z,3.73
2018-07-20T01:25:30.300Z,3.43
2018-07-20T01:27:59.753Z,3.40
2018-07-20T01:30:29.398Z,3.80
2018-07-20T01:32:59.153Z,3.50
2018-07-20T01:35:29.198Z,4.43
2018-07-20T01:37:58.967Z,3.60
2018-07-20T01:40:28.989Z,3.57
2018-07-20T01:42:59.002Z,4.20
2018-07-20T01:45:28.728Z,3.43
2018-07-20T01:47:58.057Z,3.57
2018-07-20T01:50:27.455Z,4.53
2018-07-20T01:52:56.923Z,4.00
2018-07-20T01:55:26.665Z,4.93
2018-07-20T01:57:56.695Z,4.00
2018-07-20T02:00:26.655Z,4.43
2018-07-20T02:02:56.340Z,4.10
2018-07-20T02:05:25.490Z,4.33
2018-07-20T02:07:54.928Z,4.47
2018-07-20T02:10:24.892Z,4.57
2018-07-20T02:12:54.605Z,3.60
2018-07-20T02:15:23.757Z,4.00
2018-07-20T02:17:52.929Z,4.03
2018-07-20T02:20:22.060Z,4.03
2018-07-20T02:22:51.164Z,4.07
2018-07-20T02:25:20.268Z,5.03
2018-07-20T02:27:49.728Z,4.87
2018-07-20T02:30:18.849Z,4.50
2018-07-20T02:32:47.921Z,4.97
2018-07-20T02:35:16.923Z,4.70
2018-07-20T02:37:45.621Z,4.37
2018-07-20T02:40:14.780Z,4.57
2018-07-20T02:42:43.924Z,4.10
2018-07-20T02:45:13.007Z,4.70
2018-07-20T02:47:48.113Z,4.53
2018-07-20T02:50:17.125Z,4.17
2018-07-20T02:52:46.011Z,4.47
2018-07-20T02:55:15.193Z,4.83
2018-07-20T02:57:44.305Z,4.73
2018-07-20T03:00:13.605Z,4.83
2018-07-20T03:02:42.810Z,4.50
2018-07-20T03:05:12.242Z,4.80
2018-07-20T03:07:41.563Z,4.90
2018-07-20T03:10:10.422Z,4.30
2018-07-20T03:12:39.539Z,4.10
2018-07-20T03:15:08.912Z,4.17
2018-07-20T03:17:38.019Z,4.70
2018-07-20T03:20:07.403Z,4.70
2018-07-20T03:22:36.635Z,4.90
2018-07-20T03:25:06.029Z,4.43
2018-07-20T03:27:35.330Z,4.73
2018-07-20T03:30:04.422Z,3.57
2018-07-20T03:32:33.741Z,4.40
2018-07-20T03:35:02.905Z,4.00
2018-07-20T03:37:31.996Z,4.33
2018-07-20T03:40:01.101Z,4.53
2018-07-20T03:42:30.312Z,4.30
2018-07-20T03:44:59.404Z,4.73
2018-07-20T03:47:28.580Z,4.07
2018-07-20T03:49:57.728Z,4.83
2018-07-20T03:52:26.889Z,4.33
2018-07-20T03:54:56.060Z,3.87
2018-07-20T03:57:25.238Z,4.07
2018-07-20T03:59:54.595Z,3.83
2018-07-20T04:02:23.855Z,4.77
2018-07-20T04:04:52.975Z,5.00
2018-07-20T04:07:21.937Z,4.60
2018-07-20T04:09:50.584Z,4.77
2018-07-20T04:12:19.548Z,4.33
2018-07-20T04:14:48.402Z,5.10
2018-07-20T04:17:17.412Z,4.90
2018-07-20T04:19:46.225Z,4.03
2018-07-20T04:22:15.449Z,4.67
2018-07-20T04:24:44.650Z,4.70
2018-07-20T04:27:13.599Z,3.80
2018-07-20T04:29:42.784Z,3.73
2018-07-20T04:32:12.503Z,4.50
2018-07-20T04:34:42.011Z,3.57
2018-07-20T04:37:11.240Z,3.70
2018-07-20T04:39:40.447Z,4.00
2018-07-20T04:42:09.871Z,3.53
2018-07-20T04:44:38.729Z,3.40
2018-07-20T04:47:08.875Z,3.20
2018-07-20T04:49:37.948Z,3.83
2018-07-20T04:52:07.195Z,3.90
2018-07-20T04:54:36.312Z,3.87
2018-07-20T04:57:05.501Z,4.10
2018-07-20T04:59:34.589Z,3.63
2018-07-20T05:02:03.731Z,3.53
2018-07-20T05:04:32.489Z,3.07
2018-07-20T05:07:01.448Z,3.57
2018-07-20T05:09:30.535Z,2.97
2018-07-20T05:11:59.750Z,4.27
2018-07-20T05:14:29.253Z,3.30
2018-07-20T05:16:58.317Z,3.37
2018-07-20T05:19:27.465Z,3.90
2018-07-20T05:21:57.077Z,3.80
2018-07-20T05:24:26.334Z,3.30
2018-07-20T05:26:55.550Z,3.70
2018-07-20T05:29:24.860Z,3.33
2018-07-20T05:31:54.185Z,3.63
2018-07-20T05:34:23.346Z,3.77
2018-07-20T05:36:52.841Z,3.17
2018-07-20T05:39:22.128Z,3.87
2018-07-20T05:41:51.307Z,3.30
2018-07-20T05:44:21.164Z,3.40
2018-07-20T05:46:50.318Z,3.10
2018-07-20T05:49:19.524Z,3.23
2018-07-20T05:51:48.837Z,3.33
2018-07-20T05:54:18.063Z,3.70
2018-07-20T05:56:47.055Z,3.63
2018-07-20T05:59:16.222Z,2.90
2018-07-20T06:01:45.463Z,3.07
2018-07-20T06:04:14.691Z,3.23
2018-07-20T06:06:43.773Z,3.27
2018-07-20T06:09:13.249Z,2.97
2018-07-20T06:11:42.254Z,3.50
2018-07-20T06:14:11.341Z,3.00
2018-07-20T06:16:40.471Z,3.55
2018-07-20T06:19:09.716Z,3.40
2018-07-20T06:21:39.016Z,3.08
2018-07-20T06:24:08.119Z,3.15
2018-07-20T06:26:37.118Z,3.42
2018-07-20T06:29:06.170Z,3.52
2018-07-20T06:31:35.394Z,3.22
2018-07-20T06:34:04.893Z,3.08
2018-07-20T06:36:34.146Z,3.30
2018-07-20T06:39:03.666Z,3.52
2018-07-20T06:41:33.021Z,3.10
2018-07-20T06:44:02.089Z,2.60
2018-07-20T06:46:31.218Z,3.27
2018-07-20T06:49:00.112Z,3.55
2018-07-20T06:51:29.278Z,3.58
2018-07-20T06:53:58.166Z,3.33
2018-07-20T06:56:27.188Z,3.50
2018-07-20T06:58:56.323Z,3.95
2018-07-20T07:01:25.341Z,2.90
2018-07-20T07:03:54.437Z,3.55
2018-07-20T07:06:23.687Z,3.45
2018-07-20T07:08:52.941Z,3.15
2018-07-20T07:11:22.163Z,3.40
2018-07-20T07:13:51.585Z,3.40
2018-07-20T07:16:20.943Z,3.50
2018-07-20T07:18:50.151Z,3.45
2018-07-20T07:21:19.534Z,3.00
2018-07-20T07:23:48.562Z,2.72
2018-07-20T07:26:17.833Z,3.75
2018-07-20T07:28:46.872Z,3.20
2018-07-20T07:31:16.104Z,3.60
2018-07-20T07:33:45.309Z,3.22
2018-07-20T07:36:14.515Z,3.33
2018-07-20T07:38:43.942Z,3.00
2018-07-20T07:41:13.343Z,3.08
2018-07-20T07:43:42.439Z,3.20
2018-07-20T07:46:11.590Z,3.15
2018-07-20T07:48:40.875Z,3.55
2018-07-20T07:51:10.030Z,3.52
2018-07-20T07:53:38.968Z,2.75
2018-07-20T07:56:08.095Z,3.20
2018-07-20T07:58:37.276Z,3.58
2018-07-20T08:01:06.448Z,3.20
2018-07-20T08:03:35.869Z,2.80
2018-07-20T08:06:05.097Z,3.00
2018-07-20T08:08:34.259Z,2.58
2018-07-20T08:11:03.465Z,3.02
2018-07-20T08:13:32.722Z,3.15
2018-07-20T08:16:01.961Z,2.83
2018-07-20T08:18:30.817Z,2.90
2018-07-20T08:20:59.805Z,2.58
2018-07-20T08:23:29.040Z,3.30
2018-07-20T08:25:58.168Z,2.70
2018-07-20T08:28:27.286Z,2.40
2018-07-20T08:30:56.439Z,2.98
2018-07-20T08:33:25.629Z,3.33
2018-07-20T08:35:54.953Z,2.60
2018-07-20T08:38:24.155Z,2.77
2018-07-20T08:40:53.486Z,3.12
2018-07-20T08:43:22.676Z,3.12
2018-07-20T08:45:51.978Z,3.08
2018-07-20T08:48:21.203Z,2.80
2018-07-20T08:50:50.012Z,2.47
2018-07-20T08:53:19.188Z,2.70
2018-07-20T08:55:48.042Z,2.60
2018-07-20T08:58:17.042Z,2.60
2018-07-20T09:00:46.150Z,2.40
2018-07-20T09:03:15.116Z,2.83
2018-07-20T09:05:44.127Z,2.52
2018-07-20T09:08:13.208Z,2.65
2018-07-20T09:10:42.482Z,2.52
2018-07-20T09:13:12.230Z,2.67
2018-07-20T09:15:41.400Z,2.70
2018-07-20T09:18:10.304Z,3.00
2018-07-20T09:20:39.283Z,2.80
2018-07-20T09:23:08.404Z,3.70
2018-07-20T09:25:37.517Z,2.52
2018-07-20T09:28:06.717Z,2.85
2018-07-20T09:30:35.992Z,3.00
2018-07-20T09:33:05.191Z,3.00
2018-07-20T09:35:34.667Z,2.70
2018-07-20T09:38:04.111Z,2.45
2018-07-20T09:40:33.066Z,2.62
2018-07-20T09:43:02.333Z,2.65
2018-07-20T09:45:31.473Z,2.52
2018-07-20T09:48:00.768Z,2.90
2018-07-20T09:50:29.869Z,3.75
2018-07-20T09:52:59.151Z,2.58
2018-07-20T09:55:28.567Z,2.90
2018-07-20T09:57:57.842Z,3.00
2018-07-20T10:00:32.548Z,2.72
2018-07-20T10:03:01.874Z,2.60
2018-07-20T10:05:30.707Z,3.08
2018-07-20T10:07:59.849Z,2.92
2018-07-20T10:10:29.059Z,2.62
2018-07-20T10:12:58.258Z,2.77
2018-07-20T10:15:27.354Z,2.58
2018-07-20T10:17:56.571Z,2.65
2018-07-20T10:20:25.840Z,2.90
2018-07-20T10:22:55.106Z,2.75
2018-07-20T10:25:24.667Z,2.75
2018-07-20T10:27:53.690Z,3.20
2018-07-20T10:30:22.697Z,2.20
2018-07-20T10:32:52.031Z,2.40
2018-07-20T10:35:21.315Z,3.00
2018-07-20T10:37:51.366Z,2.47
2018-07-20T10:40:22.932Z,2.60
2018-07-20T10:42:52.141Z,2.47
2018-07-20T10:45:21.327Z,2.95
2018-07-20T10:47:50.662Z,3.20
2018-07-20T10:50:19.784Z,2.60
2018-07-20T10:52:48.888Z,3.02
2018-07-20T10:55:18.332Z,2.72
2018-07-20T10:57:47.681Z,2.90
2018-07-20T11:00:16.599Z,2.45
2018-07-20T11:02:45.614Z,3.25
2018-07-20T11:05:14.764Z,2.92
2018-07-20T11:07:43.896Z,2.80
2018-07-20T11:10:13.193Z,2.70
2018-07-20T11:12:42.335Z,2.80
2018-07-20T11:15:11.514Z,3.00
2018-07-20T11:17:41.144Z,3.27
2018-07-20T11:20:11.449Z,2.75
2018-07-20T11:22:40.616Z,2.80
2018-07-20T11:25:09.752Z,3.30
2018-07-20T11:27:38.694Z,2.70
2018-07-20T11:30:08.694Z,2.55
2018-07-20T11:32:37.850Z,3.27
2018-07-20T11:35:06.979Z,2.50
2018-07-20T11:37:36.206Z,2.83
2018-07-20T11:40:04.938Z,2.50
2018-07-20T11:42:33.929Z,2.92
2018-07-20T11:45:03.301Z,3.00
2018-07-20T11:47:32.443Z,2.98
2018-07-20T11:50:01.779Z,2.65
2018-07-20T11:52:30.891Z,2.60
2018-07-20T11:54:59.738Z,2.37
2018-07-20T11:57:28.854Z,2.47
2018-07-20T11:59:58.047Z,2.87
2018-07-20T12:02:27.499Z,2.55
2018-07-20T12:04:56.642Z,2.90
2018-07-20T12:07:25.720Z,2.85
2018-07-20T12:09:54.786Z,3.10
2018-07-20T12:12:23.735Z,2.80
2018-07-20T12:14:53.066Z,2.67
2018-07-20T12:17:22.302Z,2.45
2018-07-20T12:19:51.051Z,2.70
2018-07-20T12:22:20.024Z,3.12
2018-07-20T12:24:49.137Z,2.70
2018-07-20T12:27:18.475Z,3.75
2018-07-20T12:29:48.135Z,2.75
2018-07-20T12:32:17.230Z,2.60
2018-07-20T12:34:46.324Z,2.80
2018-07-20T12:37:15.571Z,2.75
2018-07-20T12:39:44.661Z,2.55
2018-07-20T12:42:13.850Z,3.25
2018-07-20T12:44:42.774Z,2.33
2018-07-20T12:47:11.877Z,2.85
2018-07-20T12:49:41.234Z,2.90
2018-07-20T12:52:10.504Z,2.47
2018-07-20T12:54:39.804Z,2.70
2018-07-20T12:57:09.346Z,2.98
2018-07-20T12:59:38.840Z,3.33
2018-07-20T13:02:08.025Z,2.90
2018-07-20T13:04:37.299Z,2.70
2018-07-20T13:07:06.462Z,2.67
2018-07-20T13:09:35.651Z,2.60
2018-07-20T13:12:05.053Z,3.12
2018-07-20T13:14:34.297Z,3.10
2018-07-20T13:17:03.575Z,2.70
2018-07-20T13:19:32.766Z,2.70
2018-07-20T13:22:02.015Z,2.80
2018-07-20T13:24:31.119Z,2.40
2018-07-20T13:27:00.355Z,2.62
2018-07-20T13:29:29.641Z,2.65
2018-07-20T13:31:58.897Z,2.35
2018-07-20T13:34:27.877Z,2.60
2018-07-20T13:36:56.809Z,3.12
2018-07-20T13:39:25.908Z,2.52
2018-07-20T13:41:55.358Z,2.65
2018-07-20T13:44:24.475Z,2.83
2018-07-20T13:46:53.899Z,3.22
2018-07-20T13:49:23.137Z,2.70
2018-07-20T13:51:52.507Z,3.00
2018-07-20T13:54:21.901Z,3.00
2018-07-20T13:56:51.075Z,2.90
2018-07-20T13:59:20.544Z,2.80
2018-07-20T14:01:49.875Z,3.35
2018-07-20T14:04:18.766Z,3.25
2018-07-20T14:06:47.804Z,2.75
2018-07-20T14:09:17.031Z,2.70
2018-07-20T14:11:46.327Z,2.95
2018-07-20T14:14:15.509Z,3.27
2018-07-20T14:16:44.847Z,2.80
2018-07-20T14:19:13.720Z,2.98
2018-07-20T14:21:42.954Z,3.25
2018-07-20T14:24:12.313Z,3.20
2018-07-20T14:26:41.577Z,3.02
2018-07-20T14:29:10.512Z,3.22
2018-07-20T14:31:39.675Z,3.12
2018-07-20T14:34:08.868Z,2.47
2018-07-20T14:36:38.200Z,2.72
2018-07-20T14:39:08.142Z,2.80
2018-07-20T14:41:37.335Z,3.00
2018-07-20T14:44:06.595Z,3.10
2018-07-20T14:46:35.832Z,3.27
2018-07-20T14:49:05.149Z,2.98
2018-07-20T14:51:34.484Z,2.90
2018-07-20T14:54:03.352Z,3.10
2018-07-20T14:56:32.668Z,2.90
2018-07-20T14:59:01.989Z,2.95
2018-07-20T15:01:31.268Z,2.87
2018-07-20T15:04:00.196Z,3.05
2018-07-20T15:06:29.377Z,2.90
2018-07-20T15:08:58.583Z,2.98
2018-07-20T15:11:27.819Z,3.12
2018-07-20T15:13:57.158Z,2.92
2018-07-20T15:16:26.383Z,2.77
2018-07-20T15:18:55.488Z,2.72
2018-07-20T15:21:24.668Z,3.15
2018-07-20T15:23:53.791Z,2.77
2018-07-20T15:26:23.112Z,2.90
2018-07-20T15:28:52.475Z,2.80
2018-07-20T15:31:21.827Z,3.20
2018-07-20T15:33:51.042Z,3.02
2018-07-20T15:36:20.455Z,3.30
2018-07-20T15:38:49.963Z,2.85
2018-07-20T15:41:19.204Z,3.20
2018-07-20T15:43:48.501Z,2.90
2018-07-20T15:46:17.897Z,2.70
2018-07-20T15:48:46.952Z,2.80
2018-07-20T15:51:16.319Z,3.42
2018-07-20T15:53:45.700Z,3.08
2018-07-20T15:56:14.965Z,3.65
2018-07-20T15:58:44.168Z,3.35
2018-07-20T16:01:13.389Z,3.05
2018-07-20T16:03:42.687Z,2.85
2018-07-20T16:06:11.866Z,3.15
2018-07-20T16:08:40.845Z,3.05
2018-07-20T16:11:10.001Z,2.60
2018-07-20T16:13:39.116Z,2.47
2018-07-20T16:16:08.315Z,2.72
2018-07-20T16:18:37.350Z,3.10
2018-07-20T16:21:06.795Z,2.90
2018-07-20T16:23:35.963Z,3.30
2018-07-20T16:26:05.811Z,3.12
2018-07-20T16:28:34.969Z,3.30
2018-07-20T16:31:04.415Z,3.10
2018-07-20T16:33:33.824Z,2.90
2018-07-20T16:36:03.142Z,2.58
2018-07-20T16:38:32.472Z,2.65
2018-07-20T16:41:01.787Z,2.90
2018-07-20T16:43:30.982Z,3.00
2018-07-20T16:46:00.332Z,3.22
2018-07-20T16:48:29.607Z,3.45
2018-07-20T16:50:58.674Z,3.20
2018-07-20T16:53:27.804Z,2.65
2018-07-20T16:55:56.646Z,2.87
2018-07-20T16:58:25.792Z,3.02
2018-07-20T17:00:54.735Z,3.05
2018-07-20T17:03:24.048Z,2.77
2018-07-20T17:05:53.144Z,2.75
2018-07-20T17:08:22.441Z,2.83
2018-07-20T17:10:51.862Z,2.90
2018-07-20T17:13:21.039Z,3.52
2018-07-20T17:15:50.152Z,2.70
2018-07-20T17:18:19.366Z,3.20
2018-07-20T17:20:48.671Z,3.42
2018-07-20T17:23:18.253Z,3.58
2018-07-20T17:25:47.385Z,2.98
2018-07-20T17:28:16.623Z,3.20
2018-07-20T17:30:45.755Z,3.30
2018-07-20T17:33:14.869Z,3.27
2018-07-20T17:35:44.113Z,3.27
2018-07-20T17:38:13.377Z,3.00
2018-07-20T17:40:42.551Z,3.00
2018-07-20T17:43:11.770Z,2.65
2018-07-20T17:45:41.017Z,2.90
2018-07-20T17:48:10.281Z,2.85
2018-07-20T17:50:39.583Z,2.70
2018-07-20T17:53:08.763Z,3.35
2018-07-20T17:55:38.034Z,3.10
2018-07-20T17:58:07.690Z,3.20
2018-07-20T18:00:36.925Z,3.67
2018-07-20T18:03:06.269Z,3.15
2018-07-20T18:05:35.477Z,3.33
2018-07-20T18:08:04.964Z,2.95
2018-07-20T18:10:34.293Z,3.20
2018-07-20T18:13:03.442Z,3.10
2018-07-20T18:15:32.595Z,3.83
2018-07-20T18:18:01.785Z,3.45
2018-07-20T18:20:30.969Z,2.75
2018-07-20T18:23:01.011Z,2.90
2018-07-20T18:25:30.178Z,3.00
2018-07-20T18:27:59.645Z,3.00
2018-07-20T18:30:29.014Z,2.85
2018-07-20T18:32:58.180Z,2.90
2018-07-20T18:35:27.409Z,2.92
2018-07-20T18:37:56.648Z,3.35
2018-07-20T18:40:25.941Z,3.15
2018-07-20T18:42:55.252Z,2.95
2018-07-20T18:45:24.176Z,3.40
2018-07-20T18:47:53.472Z,3.77
2018-07-20T18:50:22.668Z,3.40
2018-07-20T18:52:52.088Z,5.17
2018-07-20T18:55:22.350Z,4.50
2018-07-20T18:57:51.634Z,5.95
2018-07-20T19:00:20.853Z,4.72
2018-07-20T19:02:50.257Z,4.37
2018-07-20T19:05:19.420Z,4.00
2018-07-20T19:07:48.697Z,4.03
2018-07-20T19:10:17.859Z,3.47
2018-07-20T19:12:47.196Z,3.70
2018-07-20T19:15:16.443Z,3.90
2018-07-20T19:17:45.849Z,4.12
2018-07-20T19:20:15.659Z,3.70
2018-07-20T19:22:44.886Z,3.35
2018-07-20T19:25:14.153Z,3.45
2018-07-20T19:27:43.426Z,3.20
2018-07-20T19:30:12.880Z,4.08
2018-07-20T19:32:42.299Z,4.33
2018-07-20T19:35:11.452Z,3.33
2018-07-20T19:37:41.052Z,3.60
2018-07-20T19:40:10.333Z,3.17
2018-07-20T19:42:39.561Z,3.12
2018-07-20T19:45:08.837Z,3.22
2018-07-20T19:47:38.384Z,3.30
2018-07-20T19:50:07.738Z,4.07
2018-07-20T19:52:37.003Z,3.93
2018-07-20T19:55:06.677Z,4.58
2018-07-20T19:57:35.899Z,3.30
2018-07-20T20:00:07.486Z,3.83
2018-07-20T20:02:36.711Z,3.03
2018-07-20T20:05:06.590Z,2.90
2018-07-20T20:07:35.843Z,3.97
2018-07-20T20:10:06.107Z,3.95
2018-07-20T20:12:35.326Z,4.40
2018-07-20T20:15:04.590Z,3.83
2018-07-20T20:17:33.869Z,3.83
2018-07-20T20:20:03.154Z,4.30
2018-07-20T20:22:32.728Z,3.87
2018-07-20T20:25:02.142Z,3.90
2018-07-20T20:27:31.550Z,2.90
2018-07-20T20:30:00.693Z,3.00
2018-07-20T20:32:29.866Z,2.83
2018-07-20T20:34:58.708Z,2.60
2018-07-20T20:37:27.802Z,2.87
2018-07-20T20:39:57.052Z,2.97
2018-07-20T20:42:26.335Z,2.80
2018-07-20T20:44:55.623Z,2.97
2018-07-20T20:47:24.860Z,3.07
2018-07-20T20:49:54.106Z,2.87
2018-07-20T20:52:24.082Z,3.13
2018-07-20T20:54:53.268Z,3.33
2018-07-20T20:57:22.682Z,3.40
2018-07-20T20:59:51.930Z,5.27
2018-07-20T21:02:24.028Z,4.67
2018-07-20T21:04:53.468Z,4.13
2018-07-20T21:07:22.644Z,3.90
2018-07-20T21:09:51.889Z,3.00
2018-07-20T21:12:21.114Z,3.20
2018-07-20T21:14:50.437Z,4.13
2018-07-20T21:17:19.676Z,4.47
2018-07-20T21:19:49.061Z,3.80
2018-07-20T21:22:18.692Z,4.53
2018-07-20T21:24:48.115Z,4.20
2018-07-20T21:27:17.361Z,4.40
2018-07-20T21:29:46.548Z,4.40
2018-07-20T21:32:15.839Z,3.50
2018-07-20T21:34:45.048Z,3.17
2018-07-20T21:37:21.596Z,3.13
2018-07-20T21:39:53.687Z,2.80
2018-07-20T21:42:22.801Z,4.07
2018-07-20T21:44:52.166Z,3.30
2018-07-20T21:47:21.459Z,3.20
2018-07-20T21:49:50.742Z,3.90
2018-07-20T21:52:19.894Z,3.57
2018-07-20T21:54:49.323Z,3.50
2018-07-20T21:57:18.620Z,3.17
2018-07-20T21:59:47.790Z,3.47
2018-07-20T22:02:17.031Z,4.13
2018-07-20T22:04:46.200Z,3.30
2018-07-20T22:07:15.380Z,3.53
2018-07-20T22:09:44.226Z,2.97
2018-07-20T22:12:13.370Z,2.67
2018-07-20T22:14:42.738Z,3.10
2018-07-20T22:17:11.801Z,2.33
2018-07-20T22:19:40.649Z,2.63
2018-07-20T22:22:09.973Z,2.77
2018-07-20T22:24:39.081Z,3.10
2018-07-20T22:27:08.224Z,3.43
2018-07-20T22:29:37.519Z,4.80
2018-07-20T22:32:06.665Z,4.73
2018-07-20T22:34:35.656Z,4.23
2018-07-20T22:37:05.177Z,4.37
2018-07-20T22:39:34.347Z,4.03
2018-07-20T22:42:03.641Z,3.53
2018-07-20T22:44:32.867Z,2.77
2018-07-20T22:47:02.233Z,3.83
2018-07-20T22:49:31.367Z,3.33
2018-07-20T22:52:00.592Z,3.30
2018-07-20T22:54:29.645Z,3.67
2018-07-20T22:56:58.932Z,3.17
2018-07-20T22:59:27.893Z,3.03
2018-07-20T23:01:57.135Z,3.07
2018-07-20T23:04:26.589Z,3.30
2018-07-20T23:06:56.083Z,4.20
2018-07-20T23:09:25.361Z,5.00
2018-07-20T23:11:54.653Z,4.73
2018-07-20T23:14:23.975Z,4.50
2018-07-20T23:16:53.247Z,3.93
2018-07-20T23:19:22.458Z,5.03
2018-07-20T23:21:51.711Z,4.10
2018-07-20T23:24:20.866Z,4.83
2018-07-20T23:26:50.259Z,4.30
2018-07-20T23:29:19.488Z,3.80
2018-07-20T23:31:48.582Z,3.80
2018-07-20T23:34:17.989Z,4.00
2018-07-20T23:36:47.382Z,3.90
2018-07-20T23:39:16.707Z,4.13
2018-07-20T23:41:45.969Z,3.67
2018-07-20T23:44:15.237Z,3.27
2018-07-20T23:46:44.563Z,3.47
2018-07-20T23:49:13.599Z,3.40
2018-07-20T23:51:43.445Z,3.00
2018-07-20T23:54:12.526Z,3.70
2018-07-20T23:56:41.642Z,3.43
2018-07-20T23:59:10.758Z,3.63
